createdAt,value
2018-05-31T00:02:25.872Z,99.90
2018-05-31T00:04:54.128Z,99.90
2018-05-31T00:07:21.607Z,99.90
2018-05-31T00:09:49.918Z,99.90
2018-05-31T00:12:17.387Z,99.90
2018-05-31T00:14:44.847Z,99.90
2018-05-31T00:17:12.335Z,99.90
2018-05-31T00:19:39.799Z,99.90
2018-05-31T00:22:07.244Z,99.90
2018-05-31T00:24:34.733Z,99.90
2018-05-31T00:27:02.189Z,99.90
2018-05-31T00:29:29.665Z,99.90
2018-05-31T00:31:57.147Z,99.90
2018-05-31T00:34:24.599Z,99.90
2018-05-31T00:36:52.043Z,99.90
2018-05-31T00:39:19.501Z,99.90
2018-05-31T00:41:46.980Z,99.90
2018-05-31T00:44:14.450Z,99.90
2018-05-31T00:46:41.990Z,99.90
2018-05-31T00:49:10.278Z,99.90
2018-05-31T00:51:37.829Z,99.90
2018-05-31T00:54:05.304Z,99.90
2018-05-31T00:56:33.602Z,99.90
2018-05-31T00:59:01.854Z,99.90
2018-05-31T01:01:29.348Z,99.90
2018-05-31T01:03:57.580Z,99.90
2018-05-31T01:06:25.034Z,99.90
2018-05-31T01:08:52.491Z,99.90
2018-05-31T01:11:19.980Z,99.90
2018-05-31T01:13:48.236Z,99.90
2018-05-31T01:16:15.710Z,99.90
2018-05-31T01:18:43.978Z,99.90
2018-05-31T01:21:11.489Z,99.90
2018-05-31T01:23:38.974Z,99.90
2018-05-31T01:26:06.454Z,99.90
2018-05-31T01:28:33.921Z,99.90
2018-05-31T01:31:02.191Z,99.90
2018-05-31T01:33:30.474Z,99.90
2018-05-31T01:35:57.925Z,99.90
2018-05-31T01:38:32.035Z,99.90
2018-05-31T01:40:59.495Z,99.90
2018-05-31T01:43:26.972Z,99.90
2018-05-31T01:45:55.280Z,99.90
2018-05-31T01:48:22.811Z,99.90
2018-05-31T01:50:50.352Z,99.90
2018-05-31T01:53:18.669Z,99.90
2018-05-31T01:55:46.160Z,99.90
2018-05-31T01:58:13.715Z,99.90
2018-05-31T02:00:41.204Z,99.90
2018-05-31T02:03:09.454Z,99.90
2018-05-31T02:05:36.905Z,99.90
2018-05-31T02:08:04.504Z,99.90
2018-05-31T02:10:32.096Z,99.90
2018-05-31T02:12:59.545Z,99.90
2018-05-31T02:15:27.064Z,99.90
2018-05-31T02:17:55.342Z,99.90
2018-05-31T02:20:23.621Z,99.90
2018-05-31T02:22:51.860Z,99.90
2018-05-31T02:25:19.377Z,99.90
2018-05-31T02:27:46.862Z,99.90
2018-05-31T02:30:14.332Z,99.90
2018-05-31T02:32:41.827Z,99.90
2018-05-31T02:35:10.094Z,99.90
2018-05-31T02:37:38.553Z,99.90
2018-05-31T02:40:06.143Z,99.90
2018-05-31T02:42:34.433Z,99.90
2018-05-31T02:45:01.971Z,99.90
2018-05-31T02:47:29.427Z,99.90
2018-05-31T02:49:56.964Z,99.90
2018-05-31T02:52:24.426Z,99.90
2018-05-31T02:54:51.967Z,99.90
2018-05-31T02:57:19.451Z,99.90
2018-05-31T02:59:47.718Z,99.90
2018-05-31T03:02:15.160Z,99.90
2018-05-31T03:04:42.673Z,99.90
2018-05-31T03:07:11.096Z,99.90
2018-05-31T03:09:38.564Z,99.90
2018-05-31T03:12:06.017Z,99.90
2018-05-31T03:14:33.509Z,99.90
2018-05-31T03:17:01.771Z,99.90
2018-05-31T03:19:29.350Z,99.90
2018-05-31T03:21:57.626Z,99.90
2018-05-31T03:24:25.859Z,99.90
2018-05-31T03:26:53.391Z,99.90
2018-05-31T03:29:20.842Z,99.90
2018-05-31T03:31:48.303Z,99.90
2018-05-31T03:34:15.757Z,99.90
2018-05-31T03:36:43.243Z,99.90
2018-05-31T03:39:10.702Z,99.90
2018-05-31T03:41:38.176Z,99.90
2018-05-31T03:44:05.759Z,99.90
2018-05-31T03:46:33.976Z,99.90
2018-05-31T03:49:01.447Z,99.90
2018-05-31T03:51:28.926Z,99.90
2018-05-31T03:53:56.387Z,99.90
2018-05-31T03:56:24.626Z,99.90
2018-05-31T03:58:52.151Z,99.90
2018-05-31T04:01:20.717Z,99.90
2018-05-31T04:03:48.965Z,99.90
2018-05-31T04:06:16.536Z,99.90
2018-05-31T04:08:43.993Z,99.90
2018-05-31T04:11:11.566Z,99.90
2018-05-31T04:13:39.857Z,99.90
2018-05-31T04:16:07.396Z,99.90
2018-05-31T04:18:35.664Z,99.90
2018-05-31T04:21:03.120Z,99.90
2018-05-31T04:23:30.612Z,99.90
2018-05-31T04:25:58.084Z,99.90
2018-05-31T04:28:25.561Z,99.90
2018-05-31T04:30:53.087Z,99.90
2018-05-31T04:33:20.543Z,99.90
2018-05-31T04:35:48.071Z,99.90
2018-05-31T04:38:15.568Z,99.90
2018-05-31T04:40:43.256Z,99.90
2018-05-31T04:43:10.859Z,99.90
2018-05-31T04:45:39.116Z,99.90
2018-05-31T04:48:08.127Z,99.90
2018-05-31T04:50:36.345Z,99.90
2018-05-31T04:53:03.803Z,99.90
2018-05-31T04:55:31.278Z,99.90
2018-05-31T04:57:58.760Z,99.90
2018-05-31T05:00:26.340Z,99.90
2018-05-31T05:02:54.607Z,99.90
2018-05-31T05:05:22.075Z,99.90
2018-05-31T05:07:50.813Z,99.90
2018-05-31T05:10:18.300Z,99.90
2018-05-31T05:12:45.785Z,99.90
2018-05-31T05:15:13.249Z,99.90
2018-05-31T05:17:40.703Z,99.90
2018-05-31T05:20:08.195Z,99.90
2018-05-31T05:22:35.663Z,99.90
2018-05-31T05:25:03.180Z,99.90
2018-05-31T05:27:30.747Z,99.90
2018-05-31T05:29:58.235Z,99.90
2018-05-31T05:32:25.837Z,99.90
2018-05-31T05:34:54.098Z,99.90
2018-05-31T05:37:21.669Z,99.90
2018-05-31T05:39:49.923Z,99.90
2018-05-31T05:42:17.377Z,99.90
2018-05-31T05:44:44.975Z,99.90
2018-05-31T05:47:13.231Z,99.90
2018-05-31T05:49:41.499Z,99.90
2018-05-31T05:52:08.982Z,99.90
2018-05-31T05:54:36.526Z,99.90
2018-05-31T05:57:04.777Z,99.90
2018-05-31T05:59:32.265Z,99.90
2018-05-31T06:02:00.489Z,99.90
2018-05-31T06:04:27.968Z,99.90
2018-05-31T06:06:55.429Z,99.90
2018-05-31T06:09:23.008Z,99.90
2018-05-31T06:11:51.294Z,99.90
2018-05-31T06:14:18.790Z,99.90
2018-05-31T06:16:46.270Z,99.90
2018-05-31T06:19:13.748Z,99.90
2018-05-31T06:21:41.231Z,99.90
2018-05-31T06:24:09.505Z,99.90
2018-05-31T06:26:36.976Z,99.90
2018-05-31T06:29:04.454Z,99.90
2018-05-31T06:31:31.956Z,99.90
2018-05-31T06:33:59.451Z,99.90
2018-05-31T06:36:26.915Z,99.90
2018-05-31T06:38:54.373Z,99.90
2018-05-31T06:41:21.884Z,99.90
2018-05-31T06:43:49.355Z,99.90
2018-05-31T06:46:17.625Z,99.90
2018-05-31T06:48:45.181Z,99.90
2018-05-31T06:51:12.632Z,99.90
2018-05-31T06:53:40.122Z,99.90
2018-05-31T06:56:07.593Z,99.60
2018-05-31T06:58:35.044Z,99.70
2018-05-31T07:01:02.539Z,99.90
2018-05-31T07:03:30.012Z,99.90
2018-05-31T07:05:57.487Z,99.10
2018-05-31T07:08:24.994Z,99.90
2018-05-31T07:10:52.479Z,98.90
2018-05-31T07:13:19.977Z,99.70
2018-05-31T07:15:48.222Z,99.10
2018-05-31T07:18:15.771Z,99.10
2018-05-31T07:20:43.357Z,99.40
2018-05-31T07:23:10.811Z,99.90
2018-05-31T07:25:39.092Z,99.90
2018-05-31T07:28:07.326Z,99.40
2018-05-31T07:30:34.792Z,99.40
2018-05-31T07:33:02.475Z,99.50
2018-05-31T07:35:29.941Z,99.90
2018-05-31T07:37:58.188Z,99.90
2018-05-31T07:40:25.632Z,99.90
2018-05-31T07:42:53.081Z,99.90
2018-05-31T07:45:20.561Z,99.90
2018-05-31T07:47:48.014Z,99.90
2018-05-31T07:50:15.456Z,99.90
2018-05-31T07:52:42.919Z,99.90
2018-05-31T07:55:10.383Z,99.90
2018-05-31T07:57:37.857Z,99.90
2018-05-31T08:00:05.340Z,99.90
2018-05-31T08:02:33.748Z,99.90
2018-05-31T08:05:01.267Z,99.90
2018-05-31T08:07:29.643Z,99.90
2018-05-31T08:09:57.965Z,99.90
2018-05-31T08:12:25.477Z,99.90
2018-05-31T08:14:53.858Z,99.90
2018-05-31T08:17:22.106Z,99.90
2018-05-31T08:19:49.654Z,99.90
2018-05-31T08:22:17.207Z,99.90
2018-05-31T08:24:44.762Z,99.90
2018-05-31T08:27:12.318Z,99.90
2018-05-31T08:29:39.908Z,99.90
2018-05-31T08:32:08.234Z,99.90
2018-05-31T08:34:35.772Z,99.90
2018-05-31T08:37:04.095Z,99.90
2018-05-31T08:39:31.665Z,99.90
2018-05-31T08:41:59.149Z,99.90
2018-05-31T08:44:27.420Z,99.90
2018-05-31T08:46:55.748Z,99.90
2018-05-31T08:49:23.292Z,99.90
2018-05-31T08:51:50.752Z,99.90
2018-05-31T08:54:18.195Z,99.90
2018-05-31T08:56:46.433Z,99.90
2018-05-31T08:59:13.922Z,99.90
2018-05-31T09:01:42.161Z,99.90
2018-05-31T09:04:10.373Z,99.90
2018-05-31T09:06:38.629Z,99.90
2018-05-31T09:09:06.082Z,99.90
2018-05-31T09:11:33.539Z,99.90
2018-05-31T09:14:00.997Z,99.90
2018-05-31T09:16:28.449Z,99.90
2018-05-31T09:18:55.899Z,99.90
2018-05-31T09:21:23.350Z,99.90
2018-05-31T09:23:50.837Z,99.90
2018-05-31T09:26:18.348Z,99.90
2018-05-31T09:28:45.841Z,99.10
2018-05-31T09:31:13.281Z,98.10
2018-05-31T09:33:40.737Z,96.90
2018-05-31T09:36:08.216Z,93.20
2018-05-31T09:38:35.669Z,92.50
2018-05-31T09:41:03.169Z,91.80
2018-05-31T09:43:30.586Z,90.60
2018-05-31T09:45:58.062Z,91.30
2018-05-31T09:48:26.273Z,76.40
2018-05-31T09:50:53.756Z,76.40
2018-05-31T09:53:21.215Z,77.90
2018-05-31T09:55:48.683Z,77.60
2018-05-31T09:58:16.187Z,80.60
2018-05-31T10:00:43.633Z,81.30
2018-05-31T10:03:11.100Z,80.10
2018-05-31T10:05:38.585Z,83.40
2018-05-31T10:08:06.044Z,79.90
2018-05-31T10:10:33.486Z,76.00
2018-05-31T10:13:00.941Z,75.50
2018-05-31T10:15:28.440Z,71.20
2018-05-31T10:17:55.909Z,69.00
2018-05-31T10:20:23.381Z,65.50
2018-05-31T10:22:51.640Z,64.20
2018-05-31T10:25:19.897Z,67.60
2018-05-31T10:27:47.367Z,67.10
2018-05-31T10:33:06.254Z,62.00
2018-05-31T10:35:34.495Z,57.80
2018-05-31T10:38:01.962Z,57.70
2018-05-31T10:40:29.440Z,56.80
2018-05-31T10:42:56.889Z,57.30
2018-05-31T10:45:24.396Z,58.40
2018-05-31T10:47:51.902Z,57.10
2018-05-31T10:50:19.368Z,55.90
2018-05-31T10:52:46.839Z,54.00
2018-05-31T10:55:14.315Z,59.10
2018-05-31T10:57:41.789Z,60.00
2018-05-31T11:00:09.259Z,59.90
2018-05-31T11:02:36.733Z,59.20
2018-05-31T11:05:04.214Z,61.60
2018-05-31T11:07:32.525Z,57.40
2018-05-31T11:10:00.002Z,55.60
2018-05-31T11:12:27.504Z,57.60
2018-05-31T11:14:55.831Z,58.40
2018-05-31T11:17:23.277Z,58.80
2018-05-31T11:19:50.750Z,57.80
2018-05-31T11:22:18.227Z,55.00
2018-05-31T11:24:45.689Z,59.70
2018-05-31T11:27:13.160Z,64.60
2018-05-31T11:29:40.622Z,69.20
2018-05-31T11:32:08.112Z,71.70
2018-05-31T11:34:35.564Z,75.40
2018-05-31T11:37:03.035Z,75.80
2018-05-31T11:39:30.524Z,80.90
2018-05-31T11:41:57.987Z,80.20
2018-05-31T11:44:25.466Z,79.70
2018-05-31T11:46:52.923Z,77.90
2018-05-31T11:49:20.417Z,75.60
2018-05-31T11:51:47.831Z,72.80
2018-05-31T11:54:15.318Z,73.30
2018-05-31T11:56:42.796Z,72.80
2018-05-31T11:59:10.267Z,69.60
2018-05-31T12:01:37.748Z,71.10
2018-05-31T12:04:05.229Z,70.20
2018-05-31T12:06:33.541Z,63.80
2018-05-31T12:09:00.945Z,63.50
2018-05-31T12:11:28.385Z,63.80
2018-05-31T12:13:56.710Z,61.10
2018-05-31T12:16:24.177Z,61.80
2018-05-31T12:18:51.644Z,61.80
2018-05-31T12:21:19.118Z,61.20
2018-05-31T12:23:46.567Z,61.60
2018-05-31T12:26:14.060Z,57.40
2018-05-31T12:28:41.538Z,59.10
2018-05-31T12:31:09.804Z,56.90
2018-05-31T12:33:37.265Z,57.00
2018-05-31T12:36:05.486Z,58.60
2018-05-31T12:38:32.943Z,58.50
2018-05-31T12:41:00.422Z,56.60
2018-05-31T12:43:27.885Z,53.90
2018-05-31T12:45:55.380Z,52.00
2018-05-31T12:48:23.619Z,50.00
2018-05-31T12:50:51.105Z,50.00
2018-05-31T12:53:19.348Z,47.20
2018-05-31T12:55:46.839Z,47.10
2018-05-31T12:58:15.067Z,52.40
2018-05-31T13:00:42.514Z,52.30
2018-05-31T13:03:09.978Z,52.30
2018-05-31T13:05:37.462Z,55.90
2018-05-31T13:08:04.907Z,55.30
2018-05-31T13:10:32.396Z,57.00
2018-05-31T13:13:00.636Z,60.20
2018-05-31T13:15:28.151Z,59.40
2018-05-31T13:17:55.620Z,60.20
2018-05-31T13:20:23.101Z,59.30
2018-05-31T13:22:51.485Z,60.50
2018-05-31T13:25:18.980Z,63.20
2018-05-31T13:27:46.408Z,65.20
2018-05-31T13:30:13.904Z,65.80
2018-05-31T13:32:41.430Z,63.30
2018-05-31T13:35:08.894Z,64.60
2018-05-31T13:37:36.345Z,64.80
2018-05-31T13:40:03.825Z,66.40
2018-05-31T13:42:32.092Z,66.20
2018-05-31T13:44:59.557Z,66.00
2018-05-31T13:47:27.799Z,70.80
2018-05-31T13:49:55.252Z,70.40
2018-05-31T13:52:22.727Z,68.20
2018-05-31T13:54:50.195Z,71.30
2018-05-31T13:57:17.680Z,67.50
2018-05-31T13:59:45.161Z,70.60
2018-05-31T14:02:12.616Z,68.10
2018-05-31T14:04:40.076Z,69.80
2018-05-31T14:07:07.537Z,66.10
2018-05-31T14:09:35.012Z,68.50
2018-05-31T14:12:02.460Z,68.50
2018-05-31T14:14:29.920Z,70.50
2018-05-31T14:16:57.386Z,71.10
2018-05-31T14:19:24.849Z,70.00
2018-05-31T14:21:52.340Z,71.50
2018-05-31T14:24:20.568Z,68.20
2018-05-31T14:26:48.055Z,68.20
2018-05-31T14:29:15.499Z,68.70
2018-05-31T14:31:42.957Z,69.10
2018-05-31T14:34:10.444Z,70.40
2018-05-31T14:36:38.696Z,69.20
2018-05-31T14:39:06.855Z,69.20
2018-05-31T14:41:34.323Z,71.50
2018-05-31T14:44:01.790Z,71.50
2018-05-31T14:46:29.236Z,67.30
2018-05-31T14:48:56.706Z,72.60
2018-05-31T14:51:24.180Z,68.20
2018-05-31T14:53:52.399Z,69.20
2018-05-31T14:56:19.900Z,69.20
2018-05-31T14:58:48.152Z,70.30
2018-05-31T15:01:15.657Z,70.00
2018-05-31T15:03:43.126Z,69.80
2018-05-31T15:06:10.599Z,69.40
2018-05-31T15:08:38.960Z,71.30
2018-05-31T15:11:06.445Z,70.30
2018-05-31T15:13:33.913Z,67.90
2018-05-31T15:16:02.152Z,69.30
2018-05-31T15:18:29.651Z,69.20
2018-05-31T15:20:57.099Z,68.50
2018-05-31T15:23:24.572Z,70.10
2018-05-31T15:25:52.049Z,69.20
2018-05-31T15:28:20.290Z,67.40
2018-05-31T15:30:47.747Z,66.50
2018-05-31T15:33:15.221Z,70.10
2018-05-31T15:35:42.700Z,72.20
2018-05-31T15:38:10.932Z,69.70
2018-05-31T15:40:38.393Z,69.80
2018-05-31T15:43:05.869Z,70.80
2018-05-31T15:45:33.369Z,71.70
2018-05-31T15:48:00.839Z,69.80
2018-05-31T15:50:28.318Z,71.40
2018-05-31T15:52:55.789Z,71.40
2018-05-31T15:55:23.267Z,69.80
2018-05-31T15:57:51.511Z,68.80
2018-05-31T16:00:19.010Z,68.80
2018-05-31T16:02:46.452Z,67.50
2018-05-31T16:05:13.908Z,70.90
2018-05-31T16:07:41.386Z,70.70
2018-05-31T16:10:08.887Z,69.80
2018-05-31T16:12:36.356Z,71.60
2018-05-31T16:15:03.805Z,71.20
2018-05-31T16:17:32.023Z,72.50
2018-05-31T16:20:00.289Z,72.20
2018-05-31T16:22:27.746Z,72.20
2018-05-31T16:24:55.964Z,72.60
2018-05-31T16:27:23.447Z,72.60
2018-05-31T16:29:50.920Z,72.60
2018-05-31T16:32:18.385Z,70.70
2018-05-31T16:34:45.875Z,70.00
2018-05-31T16:37:13.771Z,70.70
2018-05-31T16:39:41.281Z,70.10
2018-05-31T16:42:09.524Z,71.50
2018-05-31T16:44:36.992Z,71.50
2018-05-31T16:47:04.455Z,71.20
2018-05-31T16:49:31.901Z,69.90
2018-05-31T16:51:59.361Z,68.20
2018-05-31T16:54:26.814Z,70.30
2018-05-31T16:56:54.287Z,70.50
2018-05-31T16:59:21.835Z,71.30
2018-05-31T17:01:49.975Z,72.50
2018-05-31T17:04:17.424Z,72.50
2018-05-31T17:06:44.863Z,73.30
2018-05-31T17:09:13.107Z,72.50
2018-05-31T17:11:40.580Z,72.40
2018-05-31T17:14:08.844Z,73.30
2018-05-31T17:16:36.302Z,73.30
2018-05-31T17:19:04.526Z,74.70
2018-05-31T17:21:31.981Z,74.00
2018-05-31T17:23:59.429Z,74.80
2018-05-31T17:26:26.940Z,75.10
2018-05-31T17:28:54.425Z,75.00
2018-05-31T17:31:22.665Z,76.80
2018-05-31T17:33:50.158Z,76.70
2018-05-31T17:36:18.370Z,77.40
2018-05-31T17:38:45.846Z,77.40
2018-05-31T17:41:13.321Z,77.60
2018-05-31T17:43:40.768Z,78.50
2018-05-31T17:46:09.005Z,77.50
2018-05-31T17:48:37.442Z,77.60
2018-05-31T17:51:05.689Z,79.10
2018-05-31T17:53:33.171Z,79.00
2018-05-31T17:56:00.670Z,79.50
2018-05-31T17:58:28.151Z,78.50
2018-05-31T18:00:55.716Z,81.10
2018-05-31T18:03:23.264Z,83.30
2018-05-31T18:05:50.838Z,81.60
2018-05-31T18:08:18.320Z,82.90
2018-05-31T18:10:46.660Z,84.20
2018-05-31T18:13:14.274Z,84.10
2018-05-31T18:15:41.857Z,84.50
2018-05-31T18:18:09.382Z,85.20
2018-05-31T18:20:37.656Z,85.20
2018-05-31T18:23:05.877Z,84.50
2018-05-31T18:25:33.361Z,84.40
2018-05-31T18:28:00.877Z,85.50
2018-05-31T18:30:28.503Z,85.70
2018-05-31T18:32:56.034Z,86.80
2018-05-31T18:35:23.515Z,87.40
2018-05-31T18:37:51.085Z,87.30
2018-05-31T18:40:19.350Z,86.80
2018-05-31T18:42:46.807Z,86.70
2018-05-31T18:45:14.299Z,87.50
2018-05-31T18:47:41.760Z,88.10
2018-05-31T18:50:09.216Z,87.80
2018-05-31T18:52:36.709Z,89.20
2018-05-31T18:55:04.155Z,88.00
2018-05-31T18:57:31.631Z,88.70
2018-05-31T18:59:59.092Z,89.70
2018-05-31T19:02:26.561Z,89.10
2018-05-31T19:04:54.049Z,88.90
2018-05-31T19:07:26.181Z,87.30
2018-05-31T19:09:53.629Z,87.30
2018-05-31T19:12:26.850Z,87.60
2018-05-31T19:14:55.103Z,89.40
2018-05-31T19:17:22.576Z,89.50
2018-05-31T19:19:54.699Z,90.30
2018-05-31T19:22:22.193Z,90.20
2018-05-31T19:24:55.297Z,90.80
2018-05-31T19:27:23.524Z,93.10
2018-05-31T19:29:51.166Z,93.20
2018-05-31T19:32:18.690Z,93.70
2018-05-31T19:34:46.241Z,92.30
2018-05-31T19:37:14.762Z,97.40
2018-05-31T19:39:42.288Z,96.10
2018-05-31T19:42:15.553Z,94.40
2018-05-31T19:44:43.072Z,95.20
2018-05-31T19:47:10.550Z,96.00
2018-05-31T19:49:38.029Z,96.70
2018-05-31T19:52:11.075Z,99.70
2018-05-31T19:54:38.580Z,99.90
2018-05-31T19:57:06.059Z,99.10
2018-05-31T19:59:39.904Z,99.90
2018-05-31T20:02:12.931Z,99.90
2018-05-31T20:04:40.376Z,99.90
2018-05-31T20:07:07.851Z,99.90
2018-05-31T20:09:35.309Z,99.90
2018-05-31T20:12:02.815Z,99.90
2018-05-31T20:14:30.348Z,99.90
2018-05-31T20:16:57.871Z,99.90
2018-05-31T20:19:25.335Z,99.90
2018-05-31T20:21:53.196Z,99.90
2018-05-31T20:24:20.846Z,99.90
2018-05-31T20:26:48.437Z,99.90
2018-05-31T20:29:16.673Z,99.90
2018-05-31T20:31:44.164Z,99.90
2018-05-31T20:34:12.405Z,99.90
2018-05-31T20:36:39.857Z,99.90
2018-05-31T20:39:07.312Z,99.90
2018-05-31T20:41:34.800Z,99.90
2018-05-31T20:44:02.295Z,99.90
2018-05-31T20:46:29.795Z,99.90
2018-05-31T20:48:57.238Z,99.90
2018-05-31T20:51:24.732Z,99.90
2018-05-31T20:53:52.268Z,99.90
2018-05-31T20:56:19.773Z,99.90
2018-05-31T20:58:48.316Z,99.90
2018-05-31T21:01:15.910Z,99.90
2018-05-31T21:03:43.429Z,99.90
2018-05-31T21:06:11.064Z,99.90
2018-05-31T21:08:38.569Z,99.90
2018-05-31T21:11:06.077Z,99.90
2018-05-31T21:13:33.524Z,99.90
2018-05-31T21:16:01.021Z,99.90
2018-05-31T21:18:28.676Z,99.90
2018-05-31T21:20:56.229Z,99.90
2018-05-31T21:23:23.686Z,99.90
2018-05-31T21:25:51.151Z,99.90
2018-05-31T21:28:18.652Z,99.90
2018-05-31T21:30:46.979Z,99.90
2018-05-31T21:33:15.291Z,99.90
2018-05-31T21:35:42.966Z,99.90
2018-05-31T21:38:10.400Z,99.90
2018-05-31T21:40:37.955Z,99.90
2018-05-31T21:43:05.504Z,99.90
2018-05-31T21:45:32.984Z,99.90
2018-05-31T21:48:01.304Z,99.90
2018-05-31T21:50:28.815Z,99.90
2018-05-31T21:52:57.092Z,99.90
2018-05-31T21:55:25.342Z,99.90
2018-05-31T21:57:52.798Z,99.90
2018-05-31T22:00:41.560Z,99.90
2018-05-31T22:03:09.028Z,99.90
2018-05-31T22:05:36.485Z,99.90
2018-05-31T22:08:03.964Z,99.90
2018-05-31T22:10:31.409Z,99.90
2018-05-31T22:12:58.914Z,99.90
2018-05-31T22:15:26.386Z,99.90
2018-05-31T22:17:53.861Z,99.90
2018-05-31T22:20:21.346Z,99.90
2018-05-31T22:22:49.608Z,99.90
2018-05-31T22:25:17.084Z,99.90
2018-05-31T22:27:45.314Z,99.90
2018-05-31T22:30:12.899Z,99.90
2018-05-31T22:32:40.495Z,99.90
2018-05-31T22:35:08.053Z,99.90
2018-05-31T22:37:35.622Z,99.90
2018-05-31T22:40:03.168Z,99.90
2018-05-31T22:42:30.732Z,99.90
2018-05-31T22:44:58.524Z,99.90
2018-05-31T22:47:25.980Z,99.90
2018-05-31T22:49:53.454Z,99.90
2018-05-31T22:52:20.940Z,99.90
2018-05-31T22:54:48.414Z,99.90
2018-05-31T22:57:16.648Z,99.90
2018-05-31T22:59:44.135Z,99.90
2018-05-31T23:02:12.464Z,99.90
2018-05-31T23:04:39.935Z,99.90
2018-05-31T23:07:07.443Z,99.90
2018-05-31T23:09:35.667Z,99.90
2018-05-31T23:12:03.158Z,99.90
2018-05-31T23:14:31.414Z,99.90
2018-05-31T23:16:58.895Z,99.90
2018-05-31T23:19:26.401Z,99.90
2018-05-31T23:21:53.865Z,99.90
2018-05-31T23:24:21.336Z,99.90
2018-05-31T23:26:48.828Z,99.90
2018-05-31T23:29:17.071Z,99.90
2018-05-31T23:31:44.534Z,99.90
2018-05-31T23:34:12.119Z,99.90
2018-05-31T23:36:39.614Z,99.90
2018-05-31T23:39:07.145Z,99.90
2018-05-31T23:41:35.389Z,99.90
2018-05-31T23:44:02.848Z,99.90
2018-05-31T23:46:30.468Z,99.90
2018-05-31T23:48:57.927Z,99.90
2018-05-31T23:51:26.308Z,99.90
2018-05-31T23:53:53.817Z,99.90
2018-05-31T23:56:21.301Z,99.90
2018-05-31T23:58:48.840Z,99.90
